createdAt,value
2022-08-17T00:00:05.779Z,37.36
2022-08-17T00:02:34.337Z,37.36
2022-08-17T00:05:03.937Z,37.12
2022-08-17T00:07:30.877Z,36.84
2022-08-17T00:09:57.905Z,37.23
2022-08-17T00:12:43.098Z,37.81
2022-08-17T00:15:13.703Z,37.77
2022-08-17T00:17:42.869Z,37.78
2022-08-17T00:20:12.136Z,37.32
2022-08-17T00:22:39.097Z,36.91
2022-08-17T00:25:13.094Z,37.28
2022-08-17T00:27:40.135Z,37.85
2022-08-17T00:30:09.789Z,36.93
2022-08-17T00:33:14.072Z,37.80
2022-08-17T00:35:27.905Z,37.55
2022-08-17T00:37:55.171Z,37.43
2022-08-17T00:40:22.215Z,37.52
2022-08-17T00:42:53.330Z,37.54
2022-08-17T00:45:20.641Z,37.41
2022-08-17T00:47:47.848Z,38.22
2022-08-17T00:50:17.129Z,38.10
2022-08-17T00:52:51.792Z,38.21
2022-08-17T00:55:20.109Z,38.31
2022-08-17T00:57:55.150Z,37.81
2022-08-17T01:00:29.364Z,38.53
2022-08-17T01:03:02.399Z,37.83
2022-08-17T01:05:32.597Z,38.15
2022-08-17T01:08:02.077Z,37.78
2022-08-17T01:10:58.765Z,37.73
2022-08-17T01:13:39.763Z,38.19
2022-08-17T01:16:28.909Z,38.03
2022-08-17T01:19:00.615Z,38.34
2022-08-17T01:21:41.663Z,37.87
2022-08-17T01:24:08.800Z,38.07
2022-08-17T01:26:38.086Z,38.26
2022-08-17T01:29:06.290Z,38.25
2022-08-17T01:31:38.749Z,37.97
2022-08-17T01:34:10.561Z,38.58
2022-08-17T01:36:40.000Z,38.27
2022-08-17T01:39:11.859Z,38.79
2022-08-17T01:41:41.089Z,38.30
2022-08-17T01:44:08.916Z,38.79
2022-08-17T01:46:38.624Z,38.59
2022-08-17T01:49:09.142Z,38.51
2022-08-17T01:51:36.342Z,38.39
2022-08-17T01:54:07.673Z,38.44
2022-08-17T01:56:38.594Z,39.14
2022-08-17T01:59:06.467Z,38.93
2022-08-17T02:01:34.822Z,38.71
2022-08-17T02:04:02.218Z,38.81
2022-08-17T02:06:45.207Z,39.10
2022-08-17T02:09:23.257Z,39.08
2022-08-17T02:11:54.111Z,38.79
2022-08-17T02:14:21.630Z,39.17
2022-08-17T02:16:48.606Z,39.38
2022-08-17T02:19:16.500Z,39.17
2022-08-17T02:21:45.834Z,38.50
2022-08-17T02:24:59.635Z,39.14
2022-08-17T02:27:19.739Z,39.07
2022-08-17T02:29:46.613Z,38.79
2022-08-17T02:32:27.390Z,39.10
2022-08-17T02:34:59.013Z,39.28
2022-08-17T02:37:27.656Z,39.53
2022-08-17T02:39:57.169Z,38.74
2022-08-17T02:42:45.211Z,39.26
2022-08-17T02:45:16.448Z,39.45
2022-08-17T02:47:44.480Z,39.08
2022-08-17T02:50:13.680Z,39.06
2022-08-17T02:52:44.150Z,39.31
2022-08-17T02:55:20.857Z,39.22
2022-08-17T02:57:48.545Z,39.44
2022-08-17T03:00:22.657Z,39.70
2022-08-17T03:02:50.349Z,39.89
2022-08-17T03:05:21.021Z,39.64
2022-08-17T03:07:48.273Z,39.35
2022-08-17T03:10:16.470Z,39.71
2022-08-17T03:12:44.510Z,39.68
2022-08-17T03:15:17.825Z,39.25
2022-08-17T03:17:44.960Z,39.38
2022-08-17T03:20:13.669Z,39.69
2022-08-17T03:22:47.809Z,39.46
2022-08-17T03:25:25.489Z,39.42
2022-08-17T03:27:53.172Z,39.44
2022-08-17T03:30:22.456Z,39.38
2022-08-17T03:37:45.997Z,39.99
2022-08-17T03:40:13.736Z,39.88
2022-08-17T03:42:41.910Z,39.70
2022-08-17T03:45:15.442Z,39.88
2022-08-17T03:48:01.581Z,39.79
2022-08-17T03:50:47.013Z,39.38
2022-08-17T03:53:35.713Z,39.31
2022-08-17T03:56:23.513Z,39.91
2022-08-17T03:58:50.754Z,39.72
2022-08-17T04:01:18.086Z,39.67
2022-08-17T04:03:45.014Z,40.00
2022-08-17T04:06:11.964Z,39.58
2022-08-17T04:08:38.945Z,40.05
2022-08-17T04:11:06.020Z,39.45
2022-08-17T04:13:32.944Z,39.80
2022-08-17T04:15:59.952Z,39.83
2022-08-17T04:18:27.021Z,39.61
2022-08-17T04:20:54.044Z,40.04
2022-08-17T04:23:21.063Z,40.10
2022-08-17T04:25:51.175Z,39.74
2022-08-17T04:28:19.907Z,39.56
2022-08-17T04:30:48.078Z,39.62
2022-08-17T04:33:24.108Z,40.07
2022-08-17T04:35:56.734Z,39.91
2022-08-17T04:38:26.531Z,39.84
2022-08-17T04:41:12.309Z,40.17
2022-08-17T04:43:40.912Z,39.89
2022-08-17T04:46:11.298Z,39.92
2022-08-17T04:48:41.728Z,39.91
2022-08-17T04:51:15.354Z,40.34
2022-08-17T04:53:45.609Z,39.99
2022-08-17T04:56:21.252Z,39.66
2022-08-17T04:58:51.831Z,39.87
2022-08-17T05:01:23.809Z,39.76
2022-08-17T05:03:57.042Z,40.10
2022-08-17T05:06:24.112Z,40.52
2022-08-17T05:08:51.264Z,40.03
2022-08-17T05:11:18.419Z,40.32
2022-08-17T05:13:45.711Z,40.05
2022-08-17T05:16:12.651Z,40.13
2022-08-17T05:18:39.629Z,39.99
2022-08-17T05:21:07.130Z,40.53
2022-08-17T05:23:42.534Z,40.13
2022-08-17T05:26:26.432Z,40.19
2022-08-17T05:28:57.126Z,39.99
2022-08-17T05:31:27.006Z,39.81
2022-08-17T05:33:54.081Z,40.44
2022-08-17T05:36:42.014Z,39.92
2022-08-17T05:39:08.149Z,40.03
2022-08-17T05:41:41.282Z,40.09
2022-08-17T05:44:08.257Z,40.50
2022-08-17T05:46:40.230Z,40.65
2022-08-17T05:49:08.745Z,39.84
2022-08-17T05:52:00.054Z,40.85
2022-08-17T05:54:56.182Z,40.83
2022-08-17T05:57:29.697Z,40.31
2022-08-17T06:00:22.085Z,40.34
2022-08-17T06:03:03.444Z,40.40
2022-08-17T06:05:33.314Z,40.73
2022-08-17T06:08:12.025Z,40.84
2022-08-17T06:11:02.762Z,40.18
2022-08-17T06:13:52.941Z,40.58
2022-08-17T06:16:33.794Z,40.74
2022-08-17T06:19:16.676Z,40.24
2022-08-17T06:21:47.905Z,40.58
2022-08-17T06:24:25.081Z,40.36
2022-08-17T06:26:52.975Z,40.55
2022-08-17T06:29:37.302Z,40.51
2022-08-17T06:32:10.337Z,40.38
2022-08-17T06:34:41.430Z,40.56
2022-08-17T06:37:26.245Z,40.68
2022-08-17T06:40:19.673Z,40.27
2022-08-17T06:43:06.439Z,40.74
2022-08-17T06:46:00.005Z,40.16
2022-08-17T06:48:36.152Z,40.70
2022-08-17T06:51:35.023Z,40.49
2022-08-17T06:54:10.493Z,40.63
2022-08-17T06:56:55.332Z,40.61
2022-08-17T06:59:36.252Z,40.75
2022-08-17T07:02:52.317Z,40.38
2022-08-17T07:05:24.290Z,39.99
2022-08-17T07:08:03.859Z,40.37
2022-08-17T07:10:43.002Z,40.68
2022-08-17T07:13:25.805Z,40.64
2022-08-17T07:15:58.655Z,40.19
2022-08-17T07:18:28.264Z,40.63
2022-08-17T07:21:06.134Z,40.75
2022-08-17T07:23:46.488Z,40.23
2022-08-17T07:26:13.478Z,40.34
2022-08-17T07:28:43.159Z,40.29
2022-08-17T07:31:13.345Z,40.89
2022-08-17T07:33:41.063Z,40.11
2022-08-17T07:36:29.556Z,41.00
2022-08-17T07:38:58.318Z,40.51
2022-08-17T07:41:25.475Z,40.26
2022-08-17T07:44:15.515Z,40.48
2022-08-17T07:47:27.383Z,40.32
2022-08-17T07:49:54.275Z,40.72
2022-08-17T07:52:50.631Z,40.37
2022-08-17T07:55:40.580Z,40.78
2022-08-17T07:58:07.638Z,40.16
2022-08-17T08:00:34.735Z,40.92
2022-08-17T08:03:13.332Z,40.71
2022-08-17T08:05:57.897Z,40.81
2022-08-17T08:08:47.287Z,40.30
2022-08-17T08:11:28.517Z,40.98
2022-08-17T08:13:55.391Z,40.62
2022-08-17T08:16:25.000Z,40.44
2022-08-17T08:19:02.105Z,40.18
2022-08-17T08:21:35.812Z,40.64
2022-08-17T08:24:36.707Z,40.66
2022-08-17T08:27:22.365Z,41.06
2022-08-17T08:29:57.770Z,40.56
2022-08-17T08:32:46.555Z,41.07
2022-08-17T08:35:37.986Z,40.39
2022-08-17T08:38:16.001Z,40.42
2022-08-17T08:40:54.984Z,40.68
2022-08-17T08:43:42.448Z,40.46
2022-08-17T08:46:19.810Z,40.89
2022-08-17T08:49:26.265Z,40.98
2022-08-17T08:52:21.770Z,40.26
2022-08-17T08:54:56.021Z,40.95
2022-08-17T08:57:38.509Z,41.23
2022-08-17T09:00:17.428Z,40.19
2022-08-17T09:02:58.597Z,40.33
2022-08-17T09:05:28.566Z,40.61
2022-08-17T09:08:11.108Z,41.00
2022-08-17T09:10:42.012Z,41.27
2022-08-17T09:13:33.711Z,41.18
2022-08-17T09:16:11.494Z,41.25
2022-08-17T09:18:59.983Z,40.49
2022-08-17T09:21:38.233Z,41.32
2022-08-17T09:24:27.002Z,40.72
2022-08-17T09:27:06.532Z,40.56
2022-08-17T09:29:36.842Z,40.66
2022-08-17T09:32:28.529Z,40.63
2022-08-17T09:35:02.687Z,41.27
2022-08-17T09:37:40.420Z,40.54
2022-08-17T09:40:55.449Z,40.63
2022-08-17T09:43:32.388Z,40.90
2022-08-17T09:46:11.621Z,40.48
2022-08-17T09:48:55.255Z,40.86
2022-08-17T09:51:34.129Z,41.01
2022-08-17T09:54:21.022Z,41.21
2022-08-17T09:57:29.234Z,41.43
2022-08-17T10:00:13.303Z,40.56
2022-08-17T10:03:16.401Z,40.79
2022-08-17T10:05:49.414Z,40.49
2022-08-17T10:08:52.488Z,40.55
2022-08-17T10:11:50.427Z,41.01
2022-08-17T10:14:44.336Z,41.57
2022-08-17T10:17:11.462Z,41.57
2022-08-17T10:20:03.835Z,40.75
2022-08-17T10:23:01.916Z,41.19
2022-08-17T10:25:54.967Z,41.25
2022-08-17T10:28:29.793Z,41.57
2022-08-17T10:31:31.040Z,40.93
2022-08-17T10:34:18.755Z,41.13
2022-08-17T10:36:52.519Z,41.45
2022-08-17T10:39:22.132Z,40.78
2022-08-17T10:41:55.368Z,41.58
2022-08-17T10:44:40.425Z,40.99
2022-08-17T10:47:09.483Z,41.02
2022-08-17T10:49:38.511Z,41.67
2022-08-17T10:52:20.658Z,40.74
2022-08-17T10:54:58.772Z,40.98
2022-08-17T10:57:58.182Z,41.23
2022-08-17T11:00:27.824Z,41.38
2022-08-17T11:02:58.548Z,40.88
2022-08-17T11:05:44.329Z,41.66
2022-08-17T11:08:50.283Z,41.69
2022-08-17T11:11:47.421Z,40.95
2022-08-17T11:14:26.605Z,41.73
2022-08-17T11:17:49.663Z,41.41
2022-08-17T11:20:30.277Z,41.27
2022-08-17T11:23:35.536Z,41.36
2022-08-17T11:26:17.984Z,41.78
2022-08-17T11:28:52.851Z,41.21
2022-08-17T11:31:38.854Z,41.04
2022-08-17T11:34:17.320Z,41.37
2022-08-17T11:37:09.485Z,41.87
2022-08-17T11:40:13.025Z,41.44
2022-08-17T11:42:59.818Z,42.13
2022-08-17T11:45:40.419Z,41.22
2022-08-17T11:48:40.820Z,42.02
2022-08-17T11:51:46.462Z,41.57
2022-08-17T11:54:46.594Z,41.54
2022-08-17T11:57:25.665Z,41.74
2022-08-17T11:59:55.723Z,41.32
2022-08-17T12:02:31.591Z,41.68
2022-08-17T12:05:14.630Z,41.96
2022-08-17T12:08:05.630Z,41.55
2022-08-17T12:10:35.516Z,41.34
2022-08-17T12:13:10.975Z,41.98
2022-08-17T12:15:43.026Z,42.24
2022-08-17T12:18:19.668Z,41.71
2022-08-17T12:21:19.944Z,41.90
2022-08-17T12:24:04.673Z,41.98
2022-08-17T12:26:34.588Z,42.11
2022-08-17T12:29:17.872Z,42.22
2022-08-17T12:32:02.146Z,41.75
2022-08-17T12:34:38.353Z,42.20
2022-08-17T12:37:13.211Z,42.04
2022-08-17T12:39:49.526Z,42.30
2022-08-17T12:42:27.372Z,41.58
2022-08-17T12:44:54.408Z,42.37
2022-08-17T12:47:23.046Z,41.61
2022-08-17T12:49:55.164Z,42.06
2022-08-17T12:52:32.872Z,42.15
2022-08-17T12:55:06.336Z,42.33
2022-08-17T12:57:41.253Z,41.67
2022-08-17T13:00:29.204Z,41.75
2022-08-17T13:03:21.823Z,42.25
2022-08-17T13:06:03.504Z,42.19
2022-08-17T13:08:33.583Z,42.43
2022-08-17T13:11:03.827Z,42.33
2022-08-17T13:13:37.096Z,42.04
2022-08-17T13:16:09.553Z,42.62
2022-08-17T13:18:39.014Z,42.07
2022-08-17T13:21:16.714Z,42.06
2022-08-17T13:24:04.314Z,42.51
2022-08-17T13:26:44.438Z,42.07
2022-08-17T13:29:51.623Z,42.16
2022-08-17T13:32:45.019Z,41.97
2022-08-17T13:35:32.447Z,41.88
2022-08-17T13:38:11.781Z,42.24
2022-08-17T13:40:43.231Z,42.05
2022-08-17T13:43:10.655Z,42.62
2022-08-17T13:45:39.244Z,42.80
2022-08-17T13:48:13.626Z,41.89
2022-08-17T13:50:45.223Z,42.05
2022-08-17T13:53:37.615Z,42.18
2022-08-17T13:56:38.412Z,42.51
2022-08-17T13:59:52.577Z,42.59
2022-08-17T14:02:13.973Z,42.63
2022-08-17T14:04:43.529Z,42.51
2022-08-17T14:07:13.366Z,42.32
2022-08-17T14:09:47.396Z,42.85
2022-08-17T14:12:17.392Z,42.14
2022-08-17T14:14:45.073Z,42.00
2022-08-17T14:17:12.946Z,42.67
2022-08-17T14:19:40.118Z,42.57
2022-08-17T14:22:11.664Z,42.53
2022-08-17T14:24:45.015Z,42.12
2022-08-17T14:27:12.458Z,42.93
2022-08-17T14:29:41.271Z,42.13
2022-08-17T14:32:17.149Z,42.05
2022-08-17T14:34:45.302Z,41.97
2022-08-17T14:37:13.069Z,42.79
2022-08-17T14:39:40.239Z,42.60
2022-08-17T14:42:07.351Z,42.87
2022-08-17T14:44:34.440Z,42.61
2022-08-17T14:47:01.392Z,42.23
2022-08-17T14:49:30.301Z,42.38
2022-08-17T14:51:59.096Z,42.42
2022-08-17T14:54:33.041Z,42.94
2022-08-17T14:57:24.626Z,42.18
2022-08-17T14:59:54.806Z,42.68
2022-08-17T15:02:30.527Z,42.92
2022-08-17T15:05:05.623Z,42.38
2022-08-17T15:07:32.602Z,42.18
2022-08-17T15:10:01.430Z,42.22
2022-08-17T15:12:33.178Z,42.47
2022-08-17T15:15:04.779Z,42.13
2022-08-17T15:17:44.981Z,42.67
2022-08-17T15:20:16.045Z,42.99
2022-08-17T15:22:44.795Z,43.08
2022-08-17T15:25:12.242Z,43.06
2022-08-17T15:27:40.310Z,42.56
2022-08-17T15:30:08.845Z,42.45
2022-08-17T15:32:39.274Z,42.73
2022-08-17T15:35:08.891Z,42.98
2022-08-17T15:37:36.462Z,42.34
2022-08-17T15:40:05.366Z,43.05
2022-08-17T15:42:32.988Z,42.37
2022-08-17T15:45:06.652Z,42.26
2022-08-17T15:47:33.605Z,42.64
2022-08-17T15:50:00.685Z,42.79
2022-08-17T15:52:31.891Z,42.39
2022-08-17T15:55:00.799Z,42.28
2022-08-17T15:57:28.170Z,42.88
2022-08-17T15:59:58.576Z,42.26
2022-08-17T16:03:46.740Z,42.84
2022-08-17T16:05:25.192Z,43.12
2022-08-17T16:07:53.614Z,43.12
2022-08-17T16:10:21.535Z,42.32
2022-08-17T16:13:04.151Z,42.57
2022-08-17T16:15:31.739Z,42.22
2022-08-17T16:17:59.404Z,42.54
2022-08-17T16:20:26.930Z,43.14
2022-08-17T16:22:54.517Z,42.81
2022-08-17T16:25:38.264Z,42.39
2022-08-17T16:28:14.196Z,42.85
2022-08-17T16:30:41.326Z,42.84
2022-08-17T16:33:11.395Z,42.21
2022-08-17T16:35:41.917Z,43.05
2022-08-17T16:38:09.622Z,42.35
2022-08-17T16:40:36.697Z,42.32
2022-08-17T16:43:06.991Z,42.52
2022-08-17T16:45:36.718Z,42.78
2022-08-17T16:48:04.506Z,42.33
2022-08-17T16:50:32.358Z,42.91
2022-08-17T16:53:06.622Z,42.96
2022-08-17T16:55:35.770Z,42.50
2022-08-17T16:58:05.078Z,42.40
2022-08-17T17:00:33.592Z,42.27
2022-08-17T17:03:19.424Z,43.04
2022-08-17T17:06:08.495Z,42.26
2022-08-17T17:08:44.507Z,43.12
2022-08-17T17:11:24.424Z,43.04
2022-08-17T17:13:57.895Z,42.62
2022-08-17T17:16:57.221Z,42.82
2022-08-17T17:19:45.913Z,42.97
2022-08-17T17:22:18.914Z,42.22
2022-08-17T17:25:07.584Z,42.16
2022-08-17T17:27:56.197Z,42.61
2022-08-17T17:30:25.025Z,42.71
2022-08-17T17:33:02.851Z,43.07
2022-08-17T17:35:46.744Z,43.17
2022-08-17T17:38:23.211Z,42.25
2022-08-17T17:41:02.537Z,43.11
2022-08-17T17:43:40.079Z,42.63
2022-08-17T17:46:27.463Z,42.24
2022-08-17T17:48:57.568Z,42.26
2022-08-17T17:52:10.074Z,42.48
2022-08-17T17:54:58.101Z,42.75
2022-08-17T17:57:40.506Z,42.95
2022-08-17T18:00:15.591Z,42.24
2022-08-17T18:03:07.710Z,42.84
2022-08-17T18:05:44.448Z,43.23
2022-08-17T18:08:35.168Z,42.60
2022-08-17T18:11:42.051Z,43.21
2022-08-17T18:14:15.225Z,42.47
2022-08-17T18:16:44.077Z,43.15
2022-08-17T18:19:16.502Z,42.88
2022-08-17T18:21:47.501Z,42.85
2022-08-17T18:24:14.585Z,42.95
2022-08-17T18:26:52.284Z,43.43
2022-08-17T18:29:28.214Z,42.83
2022-08-17T18:32:23.075Z,43.31
2022-08-17T18:34:54.089Z,42.65
2022-08-17T18:37:49.254Z,42.51
2022-08-17T18:40:16.325Z,42.54
2022-08-17T18:42:46.394Z,43.39
2022-08-17T18:45:30.621Z,43.45
2022-08-17T18:47:57.916Z,43.30
2022-08-17T18:50:35.575Z,43.15
2022-08-17T18:53:34.425Z,42.77
2022-08-17T18:56:23.078Z,42.95
2022-08-17T18:58:54.872Z,42.98
2022-08-17T19:01:22.213Z,43.27
2022-08-17T19:04:15.696Z,43.58
2022-08-17T19:06:42.990Z,43.36
2022-08-17T19:09:33.865Z,42.92
2022-08-17T19:12:06.557Z,43.17
2022-08-17T19:14:33.855Z,43.75
2022-08-17T19:17:20.560Z,43.18
2022-08-17T19:20:19.801Z,43.46
2022-08-17T19:23:04.324Z,43.63
2022-08-17T19:25:36.285Z,43.71
2022-08-17T19:28:22.381Z,43.62
2022-08-17T19:30:55.423Z,43.52
2022-08-17T19:33:22.605Z,43.74
2022-08-17T19:35:59.185Z,43.88
2022-08-17T19:38:36.599Z,43.45
2022-08-17T19:41:21.832Z,43.60
2022-08-17T19:44:09.330Z,43.28
2022-08-17T19:47:01.956Z,44.01
2022-08-17T19:49:57.875Z,43.44
2022-08-17T19:52:50.888Z,43.45
2022-08-17T19:55:48.640Z,43.32
2022-08-17T19:58:24.145Z,43.48
2022-08-17T20:00:53.157Z,44.06
2022-08-17T20:03:29.659Z,44.01
2022-08-17T20:06:12.550Z,43.90
2022-08-17T20:08:55.520Z,43.43
2022-08-17T20:11:31.780Z,43.46
2022-08-17T20:14:06.904Z,44.37
2022-08-17T20:16:34.273Z,43.98
2022-08-17T20:19:19.361Z,43.76
2022-08-17T20:21:59.532Z,44.29
2022-08-17T20:24:37.923Z,44.24
2022-08-17T20:27:11.084Z,43.94
2022-08-17T20:30:13.052Z,44.45
2022-08-17T20:32:56.121Z,44.43
2022-08-17T20:35:32.912Z,43.83
2022-08-17T20:38:07.243Z,44.44
2022-08-17T20:40:34.157Z,43.71
2022-08-17T20:43:30.034Z,44.69
2022-08-17T20:46:21.067Z,44.63
2022-08-17T20:48:52.581Z,44.41
2022-08-17T20:52:00.745Z,44.01
2022-08-17T20:54:43.130Z,44.16
2022-08-17T20:57:33.078Z,44.81
2022-08-17T21:00:17.671Z,44.27
2022-08-17T21:02:50.644Z,44.19
2022-08-17T21:05:34.577Z,44.37
2022-08-17T21:08:16.709Z,44.66
2022-08-17T21:10:46.537Z,44.26
2022-08-17T21:13:13.979Z,44.30
2022-08-17T21:15:49.945Z,44.79
2022-08-17T21:18:47.623Z,44.72
2022-08-17T21:21:32.755Z,44.29
2022-08-17T21:24:15.881Z,44.23
2022-08-17T21:27:06.141Z,44.09
2022-08-17T21:29:33.950Z,45.08
2022-08-17T21:32:08.023Z,44.55
2022-08-17T21:34:44.494Z,44.85
2022-08-17T21:37:20.554Z,45.02
2022-08-17T21:39:53.466Z,44.64
2022-08-17T21:42:29.727Z,45.10
2022-08-17T21:45:01.211Z,44.91
2022-08-17T21:47:30.711Z,44.61
2022-08-17T21:50:18.733Z,44.91
2022-08-17T21:52:47.207Z,44.99
2022-08-17T21:55:31.002Z,44.92
2022-08-17T21:58:15.150Z,45.28
2022-08-17T22:00:45.630Z,44.66
2022-08-17T22:03:25.893Z,44.79
2022-08-17T22:05:52.770Z,44.96
2022-08-17T22:08:24.046Z,44.66
2022-08-17T22:11:00.309Z,44.79
2022-08-17T22:13:29.737Z,45.12
2022-08-17T22:16:29.048Z,44.90
2022-08-17T22:18:53.670Z,45.47
2022-08-17T22:21:22.557Z,45.01
2022-08-17T22:24:15.337Z,44.82
2022-08-17T22:27:01.157Z,45.37
2022-08-17T22:29:47.438Z,45.32
2022-08-17T22:32:52.682Z,45.21
2022-08-17T22:35:37.913Z,45.00
2022-08-17T22:38:19.962Z,45.00
2022-08-17T22:40:56.205Z,45.04
2022-08-17T22:43:28.655Z,45.00
2022-08-17T22:45:59.043Z,45.46
2022-08-17T22:48:29.288Z,45.19
2022-08-17T22:51:12.617Z,44.80
2022-08-17T22:54:11.388Z,45.03
2022-08-17T22:57:05.652Z,44.90
2022-08-17T22:59:50.362Z,45.39
2022-08-17T23:02:28.615Z,45.43
2022-08-17T23:05:18.828Z,45.52
2022-08-17T23:07:46.766Z,45.33
2022-08-17T23:10:14.742Z,45.57
2022-08-17T23:12:41.863Z,45.56
2022-08-17T23:15:14.282Z,45.71
2022-08-17T23:17:42.131Z,45.46
2022-08-17T23:20:12.652Z,45.76
2022-08-17T23:22:51.403Z,45.79
2022-08-17T23:25:25.737Z,45.45
2022-08-17T23:27:52.956Z,45.75
2022-08-17T23:30:20.382Z,45.81
2022-08-17T23:32:53.629Z,46.16
2022-08-17T23:35:39.053Z,45.82
2022-08-17T23:38:12.000Z,45.51
2022-08-17T23:40:39.987Z,45.96
2022-08-17T23:43:23.756Z,46.30
2022-08-17T23:45:54.282Z,45.67
2022-08-17T23:48:34.949Z,46.14
2022-08-17T23:51:12.405Z,45.55
2022-08-17T23:53:45.204Z,46.04
2022-08-17T23:56:12.226Z,45.82
2022-08-17T23:58:42.358Z,45.83
